TimeAKDT,TemperatureF,Dew PointF,Humidity,Sea Level PressureIn,VisibilityMPH,Wind Direction,Wind SpeedMPH,Gust SpeedMPH,PrecipitationIn,Events,Conditions,WindDirDegrees,DateUTC
12:53 AM,46.0,46.0,100,28.90,2.5,NE,9.2,-,0.02,Rain,Light Rain,40,2012-10-14 08:53:00
1:10 AM,46.4,46.4,100,28.89,7.0,NE,4.6,-,0.01,Rain,Light Rain,40,2012-10-14 09:10:00
1:18 AM,46.4,46.4,100,28.89,5.0,East,6.9,-,0.02,Rain,Light Rain,80,2012-10-14 09:18:00
1:31 AM,46.4,46.4,100,28.89,3.0,ENE,6.9,-,0.02,Rain,Light Rain,70,2012-10-14 09:31:00
1:50 AM,46.4,46.4,100,28.88,2.5,ENE,4.6,-,0.03,Rain,Light Rain,60,2012-10-14 09:50:00
1:51 AM,46.0,46.0,100,28.89,2.5,ENE,4.6,-,0.03,Rain,Light Rain,60,2012-10-14 09:51:00
2:03 AM,46.4,46.4,100,28.88,4.0,East,8.1,-,0.01,Rain,Light Rain,90,2012-10-14 10:03:00
2:35 AM,46.4,46.4,100,28.88,3.0,East,8.1,-,0.02,,Overcast,100,2012-10-14 10:35:00
2:45 AM,46.4,46.4,100,28.88,8.0,East,9.2,-,0.02,,Overcast,100,2012-10-14 10:45:00
2:51 AM,46.4,46.4,100,28.88,10.0,East,10.4,-,0.02,,Overcast,100,2012-10-14 10:51:00
2:53 AM,46.0,46.0,100,28.88,10.0,East,9.2,-,0.02,,Overcast,100,2012-10-14 10:53:00
3:53 AM,46.0,45.0,96,28.87,10.0,ENE,8.1,-,N/A,,Overcast,70,2012-10-14 11:53:00
4:29 AM,44.6,44.6,100,28.86,10.0,ENE,8.1,-,N/A,,Overcast,60,2012-10-14 12:29:00
4:53 AM,45.0,45.0,100,28.86,7.0,NE,5.8,-,N/A,,Overcast,50,2012-10-14 12:53:00
5:16 AM,44.6,44.6,100,28.85,4.0,NE,4.6,-,0.02,Rain,Light Rain,40,2012-10-14 13:16:00
5:28 AM,44.6,44.6,100,28.85,5.0,NNE,5.8,-,0.03,Rain,Light Rain,30,2012-10-14 13:28:00
5:53 AM,45.0,45.0,100,28.85,4.0,NNE,3.5,-,0.04,Rain,Light Rain,30,2012-10-14 13:53:00
6:09 AM,44.6,44.6,100,28.84,4.0,Calm,Calm,-,0.01,Rain,Light Rain,0,2012-10-14 14:09:00
6:51 AM,44.6,44.6,100,28.84,3.0,West,3.5,-,0.02,,Overcast,280,2012-10-14 14:51:00
6:53 AM,45.0,45.0,100,28.84,3.0,West,3.5,-,0.02,,Overcast,280,2012-10-14 14:53:00
7:05 AM,44.6,44.6,100,28.83,6.0,Calm,Calm,-,0.00,Rain,Light Rain,0,2012-10-14 15:05:00
7:28 AM,44.6,44.6,100,28.84,10.0,Calm,Calm,-,0.00,,Overcast,0,2012-10-14 15:28:00
7:53 AM,46.0,45.0,96,28.83,5.0,NE,4.6,-,0.00,,Overcast,40,2012-10-14 15:53:00
8:51 AM,44.6,42.8,93,28.84,10.0,SSE,9.2,-,0.00,,Overcast,150,2012-10-14 16:51:00
8:53 AM,45.0,42.1,90,28.84,10.0,SSE,9.2,-,0.00,,Overcast,150,2012-10-14 16:53:00
9:46 AM,44.6,39.2,81,28.85,10.0,ESE,9.2,-,N/A,,Mostly Cloudy,120,2012-10-14 17:46:00
9:53 AM,44.1,39.9,85,28.85,10.0,ESE,11.5,-,N/A,,Mostly Cloudy,120,2012-10-14 17:53:00
10:51 AM,42.8,39.2,87,28.86,10.0,SE,15.0,-,N/A,,Scattered Clouds,130,2012-10-14 18:51:00
10:53 AM,43.0,39.0,86,28.86,10.0,SE,13.8,-,N/A,,Scattered Clouds,130,2012-10-14 18:53:00
11:53 AM,43.0,37.9,82,28.87,10.0,SE,16.1,-,N/A,,Mostly Cloudy,130,2012-10-14 19:53:00
12:53 PM,44.1,39.0,82,28.87,10.0,SE,11.5,-,N/A,,Mostly Cloudy,130,2012-10-14 20:53:00
1:53 PM,45.0,37.0,74,28.87,10.0,SSE,11.5,-,N/A,,Scattered Clouds,150,2012-10-14 21:53:00
2:53 PM,43.0,37.0,80,28.87,10.0,SE,12.7,-,N/A,,Mostly Cloudy,140,2012-10-14 22:53:00
3:53 PM,45.0,36.0,71,28.86,10.0,South,8.1,-,N/A,,Scattered Clouds,170,2012-10-14 23:53:00
4:53 PM,45.0,35.1,68,28.85,10.0,SSW,5.8,-,N/A,,Scattered Clouds,200,2012-10-15 00:53:00
5:53 PM,43.0,34.0,71,28.85,10.0,South,5.8,-,N/A,,Mostly Cloudy,190,2012-10-15 01:53:00
6:53 PM,42.1,34.0,73,28.85,10.0,South,4.6,-,N/A,,Mostly Cloudy,180,2012-10-15 02:53:00
7:53 PM,41.0,35.1,79,28.85,10.0,South,3.5,-,N/A,,Mostly Cloudy,190,2012-10-15 03:53:00
8:53 PM,39.9,36.0,86,28.86,10.0,WNW,5.8,-,0.00,,Overcast,290,2012-10-15 04:53:00
9:21 PM,39.2,37.4,93,28.85,10.0,WNW,5.8,-,0.00,Rain,Light Rain,290,2012-10-15 05:21:00
9:51 PM,39.2,37.4,93,28.86,10.0,WNW,6.9,-,0.00,Rain,Light Rain,290,2012-10-15 05:51:00
9:53 PM,39.9,37.0,89,28.87,10.0,WNW,8.1,-,0.00,Rain,Light Rain,300,2012-10-15 05:53:00
10:43 PM,39.2,35.6,87,28.87,10.0,NW,8.1,-,0.02,Rain,Light Rain,310,2012-10-15 06:43:00
10:53 PM,39.0,35.1,86,28.88,10.0,NW,6.9,-,0.02,Rain,Light Rain,310,2012-10-15 06:53:00
11:14 PM,39.2,35.6,87,28.88,10.0,WNW,8.1,-,0.01,Rain,Light Rain,300,2012-10-15 07:14:00
11:43 PM,39.2,35.6,87,28.88,10.0,WNW,8.1,-,0.02,Rain,Light Rain,300,2012-10-15 07:43:00
11:53 PM,37.9,35.1,89,28.89,10.0,WNW,6.9,-,0.02,Rain,Light Rain,300,2012-10-15 07:53:00